createdAt,value
2023-03-22T00:02:33.842Z,3.73
2023-03-22T00:05:03.934Z,3.83
2023-03-22T00:07:36.547Z,2.70
2023-03-22T00:10:22.115Z,1.80
2023-03-22T00:12:52.359Z,2.57
2023-03-22T00:15:24.073Z,3.40
2023-03-22T00:17:54.495Z,2.70
2023-03-22T00:20:24.097Z,2.97
2023-03-22T00:22:59.844Z,2.90
2023-03-22T00:25:38.925Z,2.40
2023-03-22T00:28:15.424Z,2.73
2023-03-22T00:30:48.117Z,2.50
2023-03-22T00:33:18.674Z,2.20
2023-03-22T00:35:54.585Z,2.93
2023-03-22T00:38:41.221Z,4.10
2023-03-22T00:41:15.018Z,4.33
2023-03-22T00:43:45.295Z,3.07
2023-03-22T00:46:15.036Z,3.20
2023-03-22T00:48:47.024Z,2.70
2023-03-22T00:51:21.341Z,3.13
2023-03-22T00:53:52.578Z,3.07
2023-03-22T00:56:32.357Z,2.70
2023-03-22T00:59:02.004Z,3.60
2023-03-22T01:01:32.301Z,2.60
2023-03-22T01:04:02.591Z,1.77
2023-03-22T01:06:33.384Z,3.13
2023-03-22T01:09:05.977Z,2.87
2023-03-22T01:11:43.666Z,3.70
2023-03-22T01:14:14.541Z,3.37
2023-03-22T01:16:48.698Z,3.23
2023-03-22T01:19:20.437Z,2.87
2023-03-22T01:21:51.132Z,3.40
2023-03-22T01:24:21.134Z,2.70
2023-03-22T01:26:55.299Z,2.23
2023-03-22T01:29:25.320Z,2.50
2023-03-22T01:31:55.723Z,3.63
2023-03-22T01:34:27.828Z,4.43
2023-03-22T01:36:56.999Z,3.33
2023-03-22T01:39:29.640Z,2.37
2023-03-22T01:42:01.170Z,2.30
2023-03-22T01:44:32.515Z,3.03
2023-03-22T01:47:04.202Z,2.87
2023-03-22T01:49:38.426Z,3.57
2023-03-22T01:52:09.810Z,3.30
2023-03-22T01:54:41.547Z,2.97
2023-03-22T01:57:18.653Z,2.73
2023-03-22T01:59:50.368Z,2.90
2023-03-22T02:02:22.401Z,4.13
2023-03-22T02:04:58.622Z,3.80
2023-03-22T02:07:28.280Z,2.33
2023-03-22T02:09:57.785Z,3.47
2023-03-22T02:12:34.069Z,3.40
2023-03-22T02:15:07.507Z,2.90
2023-03-22T02:17:44.743Z,2.90
2023-03-22T02:20:28.476Z,4.37
2023-03-22T02:23:17.774Z,4.17
2023-03-22T02:26:04.125Z,2.20
2023-03-22T02:28:53.192Z,3.30
2023-03-22T02:31:40.266Z,3.03
2023-03-22T02:34:28.057Z,2.93
2023-03-22T02:37:06.236Z,3.00
2023-03-22T02:39:41.203Z,3.33
2023-03-22T02:42:21.589Z,3.73
2023-03-22T02:44:57.343Z,2.80
2023-03-22T02:47:29.044Z,4.27
2023-03-22T02:50:02.447Z,3.10
2023-03-22T02:52:34.757Z,3.77
2023-03-22T02:55:09.025Z,3.43
2023-03-22T02:57:41.785Z,2.70
2023-03-22T03:00:13.090Z,2.30
2023-03-22T03:02:48.290Z,3.00
2023-03-22T03:05:18.162Z,2.97
2023-03-22T03:07:49.241Z,2.80
2023-03-22T03:10:23.364Z,5.10
2023-03-22T03:12:52.394Z,3.60
2023-03-22T03:15:24.890Z,3.70
2023-03-22T03:18:08.035Z,2.07
2023-03-22T03:20:43.049Z,2.60
2023-03-22T03:23:16.786Z,2.70
2023-03-22T03:25:52.057Z,3.20
2023-03-22T03:28:30.861Z,2.23
2023-03-22T03:31:04.097Z,2.73
2023-03-22T03:33:36.613Z,3.40
2023-03-22T03:36:16.168Z,3.17
2023-03-22T03:38:46.397Z,3.00
2023-03-22T03:41:24.205Z,2.70
2023-03-22T03:43:53.225Z,3.97
2023-03-22T03:46:22.521Z,3.17
2023-03-22T03:48:54.334Z,3.33
2023-03-22T03:51:23.488Z,3.20
2023-03-22T03:53:53.353Z,3.60
2023-03-22T03:56:24.683Z,3.13
2023-03-22T03:58:53.919Z,3.40
2023-03-22T04:01:24.518Z,3.40
2023-03-22T04:03:56.076Z,3.77
2023-03-22T04:06:26.040Z,2.80
2023-03-22T04:08:56.839Z,3.67
2023-03-22T04:11:31.454Z,3.40
2023-03-22T04:14:01.033Z,3.00
2023-03-22T04:16:35.927Z,3.17
2023-03-22T04:19:05.821Z,4.10
2023-03-22T04:21:35.009Z,2.00
2023-03-22T04:24:04.016Z,4.23
2023-03-22T04:26:35.347Z,3.10
2023-03-22T04:29:04.352Z,3.23
2023-03-22T04:31:34.362Z,3.13
2023-03-22T04:34:05.970Z,2.60
2023-03-22T04:36:36.637Z,3.37
2023-03-22T04:39:06.955Z,2.80
2023-03-22T04:41:38.666Z,4.17
2023-03-22T04:44:07.891Z,4.27
2023-03-22T04:46:37.672Z,2.93
2023-03-22T04:49:06.736Z,4.73
2023-03-22T04:51:36.106Z,2.90
2023-03-22T04:54:05.439Z,3.13
2023-03-22T04:56:34.867Z,2.43
2023-03-22T04:59:05.540Z,3.63
2023-03-22T05:01:35.761Z,3.37
2023-03-22T05:04:05.337Z,2.77
2023-03-22T05:06:38.372Z,1.90
2023-03-22T05:09:09.804Z,2.20
2023-03-22T05:11:39.461Z,2.60
2023-03-22T05:14:11.276Z,2.70
2023-03-22T05:16:41.622Z,3.03
2023-03-22T05:19:16.575Z,4.00
2023-03-22T05:21:45.963Z,2.87
2023-03-22T05:24:15.809Z,2.10
2023-03-22T05:26:54.047Z,2.27
2023-03-22T05:29:30.955Z,2.03
2023-03-22T05:32:02.751Z,2.53
2023-03-22T05:34:36.193Z,2.80
2023-03-22T05:37:05.654Z,2.57
2023-03-22T05:39:38.262Z,3.30
2023-03-22T05:42:08.859Z,2.43
2023-03-22T05:44:39.748Z,2.60
2023-03-22T05:47:09.100Z,3.73
2023-03-22T05:49:38.714Z,3.00
2023-03-22T05:52:07.886Z,2.20
2023-03-22T05:54:38.460Z,2.37
2023-03-22T05:57:10.455Z,2.60
2023-03-22T05:59:41.803Z,2.40
2023-03-22T06:02:11.119Z,3.70
2023-03-22T06:04:44.114Z,2.37
2023-03-22T06:07:13.465Z,1.90
2023-03-22T06:09:46.796Z,3.70
2023-03-22T06:12:27.236Z,2.50
2023-03-22T06:14:59.219Z,2.97
2023-03-22T06:17:28.567Z,2.47
2023-03-22T06:19:59.847Z,2.10
2023-03-22T06:22:33.494Z,3.00
2023-03-22T06:25:02.596Z,2.60
2023-03-22T06:27:35.803Z,2.53
2023-03-22T06:30:07.944Z,2.07
2023-03-22T06:32:36.976Z,2.77
2023-03-22T06:35:06.608Z,2.10
2023-03-22T06:37:38.189Z,2.23
2023-03-22T06:40:07.666Z,1.97
2023-03-22T06:42:37.452Z,2.37
2023-03-22T06:45:13.592Z,2.43
2023-03-22T06:47:43.080Z,1.63
2023-03-22T06:50:13.075Z,5.10
2023-03-22T06:52:42.655Z,2.17
2023-03-22T06:55:13.736Z,2.43
2023-03-22T06:57:44.187Z,1.43
2023-03-22T07:00:17.367Z,2.37
2023-03-22T07:02:46.982Z,1.90
2023-03-22T07:05:15.876Z,3.20
2023-03-22T07:07:46.694Z,2.50
2023-03-22T07:10:16.263Z,1.93
2023-03-22T07:12:45.511Z,2.40
2023-03-22T07:15:18.446Z,2.50
2023-03-22T07:17:47.726Z,2.03
2023-03-22T07:20:18.754Z,2.23
2023-03-22T07:22:47.919Z,2.70
2023-03-22T07:25:17.781Z,1.87
2023-03-22T07:27:48.241Z,1.50
2023-03-22T07:30:19.962Z,2.90
2023-03-22T07:32:51.441Z,2.10
2023-03-22T07:35:21.547Z,2.87
2023-03-22T07:37:51.349Z,2.13
2023-03-22T07:40:20.481Z,1.60
2023-03-22T07:42:56.445Z,1.57
2023-03-22T07:45:29.171Z,1.33
2023-03-22T07:47:58.969Z,1.60
2023-03-22T07:50:32.480Z,1.23
2023-03-22T07:53:04.200Z,1.10
2023-03-22T07:55:33.975Z,0.70
2023-03-22T07:58:04.158Z,1.77
2023-03-22T08:00:36.134Z,0.40
2023-03-22T08:03:10.973Z,1.83
2023-03-22T08:05:42.851Z,1.20
2023-03-22T08:08:14.277Z,1.63
2023-03-22T08:10:44.073Z,0.97
2023-03-22T08:13:14.634Z,2.80
2023-03-22T08:15:48.827Z,1.37
2023-03-22T08:18:18.809Z,0.80
2023-03-22T08:20:51.285Z,1.03
2023-03-22T08:23:31.671Z,0.70
2023-03-22T08:26:11.004Z,1.80
2023-03-22T08:28:41.658Z,0.70
2023-03-22T08:31:33.327Z,0.93
2023-03-22T08:34:03.989Z,1.33
2023-03-22T08:36:35.936Z,0.80
2023-03-22T08:39:06.164Z,0.80
2023-03-22T08:41:49.580Z,0.93
2023-03-22T08:44:20.890Z,0.70
2023-03-22T08:46:56.236Z,2.43
2023-03-22T08:49:29.115Z,0.77
2023-03-22T08:52:15.115Z,0.93
2023-03-22T08:54:58.682Z,0.70
2023-03-22T08:57:39.092Z,0.97
2023-03-22T09:00:11.988Z,0.63
2023-03-22T09:03:02.099Z,1.20
2023-03-22T09:05:35.538Z,0.90
2023-03-22T09:08:18.223Z,1.00
2023-03-22T09:10:52.471Z,0.30
2023-03-22T09:13:26.207Z,1.10
2023-03-22T09:15:58.054Z,1.33
2023-03-22T09:18:29.294Z,1.50
2023-03-22T09:21:06.958Z,0.83
2023-03-22T09:23:36.996Z,1.40
2023-03-22T09:26:08.059Z,0.80
2023-03-22T09:28:41.349Z,0.80
2023-03-22T09:31:12.791Z,0.80
2023-03-22T09:33:43.911Z,0.77
2023-03-22T09:36:18.910Z,0.80
2023-03-22T09:38:54.128Z,0.60
2023-03-22T09:41:28.150Z,0.57
2023-03-22T09:43:59.809Z,0.97
2023-03-22T09:46:40.012Z,0.63
2023-03-22T09:49:13.748Z,0.73
2023-03-22T09:51:48.330Z,1.00
2023-03-22T09:54:20.505Z,1.00
2023-03-22T09:56:54.503Z,0.83
2023-03-22T09:59:29.920Z,0.80
2023-03-22T10:02:10.749Z,1.00
2023-03-22T10:04:48.184Z,1.07
2023-03-22T10:07:29.720Z,0.97
2023-03-22T10:10:05.307Z,1.47
2023-03-22T10:12:45.228Z,0.80
2023-03-22T10:15:17.215Z,1.53
2023-03-22T10:17:51.466Z,1.30
2023-03-22T10:20:25.768Z,2.23
2023-03-22T10:23:14.844Z,0.67
2023-03-22T10:25:48.770Z,0.70
2023-03-22T10:28:27.497Z,1.17
2023-03-22T10:31:05.788Z,0.67
2023-03-22T10:33:38.315Z,1.20
2023-03-22T10:36:09.219Z,1.00
2023-03-22T10:38:43.229Z,0.80
2023-03-22T10:41:16.303Z,0.90
2023-03-22T10:43:46.668Z,1.00
2023-03-22T10:46:18.963Z,0.93
2023-03-22T10:48:49.790Z,1.10
2023-03-22T10:51:25.237Z,1.43
2023-03-22T10:53:59.265Z,0.87
2023-03-22T10:56:32.202Z,0.70
2023-03-22T10:59:05.614Z,0.60
2023-03-22T11:01:37.289Z,0.83
2023-03-22T11:04:13.822Z,0.70
2023-03-22T11:06:45.375Z,1.67
2023-03-22T11:09:35.896Z,1.23
2023-03-22T11:12:10.284Z,0.80
2023-03-22T11:14:50.550Z,0.87
2023-03-22T11:17:22.866Z,0.77
2023-03-22T11:19:54.601Z,1.80
2023-03-22T11:22:27.698Z,1.03
2023-03-22T11:24:59.303Z,1.40
2023-03-22T11:27:39.854Z,0.67
2023-03-22T11:30:23.326Z,1.00
2023-03-22T11:33:05.167Z,0.80
2023-03-22T11:35:34.738Z,0.80
2023-03-22T11:38:08.352Z,1.77
2023-03-22T11:40:42.207Z,1.13
2023-03-22T11:43:20.429Z,1.90
2023-03-22T11:45:52.286Z,1.13
2023-03-22T11:48:23.871Z,0.60
2023-03-22T11:50:58.715Z,1.00
2023-03-22T11:53:33.018Z,0.87
2023-03-22T11:56:12.146Z,0.73
2023-03-22T11:59:00.502Z,0.87
2023-03-22T12:01:44.304Z,1.70
2023-03-22T12:04:23.568Z,1.13
2023-03-22T12:06:59.431Z,0.83
2023-03-22T12:09:34.382Z,1.33
2023-03-22T12:12:08.175Z,1.13
2023-03-22T12:14:44.192Z,1.00
2023-03-22T12:17:40.927Z,1.30
2023-03-22T12:20:20.268Z,0.97
2023-03-22T12:22:57.354Z,1.87
2023-03-22T12:25:34.078Z,0.90
2023-03-22T12:28:14.195Z,1.13
2023-03-22T12:31:05.198Z,2.70
2023-03-22T12:33:45.035Z,1.27
2023-03-22T12:39:11.840Z,1.33
2023-03-22T12:45:10.724Z,0.77
2023-03-22T12:47:53.192Z,1.00
2023-03-22T12:53:31.857Z,0.93
2023-03-22T12:56:03.309Z,1.43
2023-03-22T12:58:37.021Z,1.97
2023-03-22T13:04:41.483Z,1.80
2023-03-22T13:07:21.605Z,1.20
2023-03-22T13:09:54.329Z,0.87
2023-03-22T13:12:50.994Z,0.80
2023-03-22T13:15:42.289Z,1.00
2023-03-22T13:21:25.896Z,1.20
2023-03-22T13:24:01.007Z,1.33
2023-03-22T13:26:41.149Z,1.00
2023-03-22T13:29:15.890Z,0.73
2023-03-22T13:31:47.150Z,0.73
2023-03-22T13:34:28.001Z,0.47
2023-03-22T13:37:19.654Z,1.90
2023-03-22T13:42:49.500Z,0.80
2023-03-22T13:45:38.742Z,0.80
2023-03-22T13:48:13.141Z,1.60
2023-03-22T13:50:45.983Z,0.93
2023-03-22T13:53:26.443Z,1.00
2023-03-22T13:56:13.490Z,0.80
2023-03-22T13:58:55.636Z,0.70
2023-03-22T14:04:25.069Z,0.60
2023-03-22T14:06:57.836Z,0.83
2023-03-22T14:09:32.895Z,1.07
2023-03-22T14:12:07.952Z,1.63
2023-03-22T14:14:45.472Z,1.10
2023-03-22T14:17:23.121Z,0.90
2023-03-22T14:19:52.952Z,1.10
